Time;durP1;ratioP1;P1;durP2;ratioP2;P2;SDS_P1;SDS_P2;PMS_P1;PMS_P2;Temp;Humidity;BMP_temperature;BMP_pressure;BME280_temperature;BME280_humidity;BME280_pressure;Samples;Min_cycle;Max_cycle;Signal;HPM_P1;HPM_P2
2023/04/20 00:00:10;;;;;;;2.33;2.23;;;;;;;7.04;90.08;95318.50;4349948;32;20197;-59
2023/04/20 00:02:38;;;;;;;2.07;1.97;;;;;;;7.01;90.23;95317.19;4315301;33;20293;-59
2023/04/20 00:05:08;;;;;;;1.77;1.70;;;;;;;7.30;89.43;95313.87;4330600;32;20321;-58
2023/04/20 00:07:34;;;;;;;1.70;1.67;;;;;;;7.51;88.57;95305.56;4333287;33;20288;-59
2023/04/20 00:10:03;;;;;;;1.70;1.63;;;;;;;7.53;88.30;95311.34;4276103;33;20316;-58
2023/04/20 00:12:31;;;;;;;2.33;2.23;;;;;;;7.57;88.00;95301.84;4316587;32;20282;-59
2023/04/20 00:14:59;;;;;;;1.20;1.20;;;;;;;7.36;88.68;95305.66;4329350;32;20278;-59
2023/04/20 00:17:24;;;;;;;2.43;2.30;;;;;;;7.24;88.60;95298.09;4336831;32;20349;-59
2023/04/20 00:19:51;;;;;;;2.23;2.13;;;;;;;7.15;88.74;95293.63;4309605;33;20297;-58
2023/04/20 00:22:18;;;;;;;1.33;1.33;;;;;;;7.31;88.43;95296.97;4305613;33;20328;-58
2023/04/20 00:24:46;;;;;;;2.20;2.00;;;;;;;6.99;89.82;95284.22;4328070;32;20193;-58
2023/04/20 00:27:11;;;;;;;2.57;2.40;;;;;;;7.00;89.98;95285.81;4317678;32;20360;-58
2023/04/20 00:29:41;;;;;;;1.70;1.67;;;;;;;7.22;89.75;95280.94;4349530;32;20282;-58
2023/04/20 00:32:07;;;;;;;2.33;2.13;;;;;;;7.18;89.67;95277.28;4350031;32;20212;-58
2023/04/20 00:34:37;;;;;;;1.13;1.00;;;;;;;7.27;89.29;95274.84;4302456;33;20362;-58
2023/04/20 00:37:02;;;;;;;1.77;1.67;;;;;;;7.00;89.64;95267.34;4336160;32;20324;-58
2023/04/20 00:39:27;;;;;;;1.87;1.77;;;;;;;7.05;89.36;95268.13;4334606;32;20277;-59
2023/04/20 00:41:53;;;;;;;1.10;1.10;;;;;;;7.11;89.58;95266.22;4348871;32;20215;-58
2023/04/20 00:44:18;;;;;;;1.33;1.33;;;;;;;6.93;90.00;95258.94;4345731;32;20189;-58
2023/04/20 00:46:47;;;;;;;1.93;1.90;;;;;;;6.98;90.15;95251.00;4341220;32;20319;-58
2023/04/20 00:49:12;;;;;;;2.33;2.23;;;;;;;6.82;90.54;95252.94;4341739;32;20220;-58
2023/04/20 00:51:50;;;;;;;2.13;1.90;;;;;;;6.92;91.08;95252.87;4327416;32;20343;-58
2023/04/20 00:54:16;;;;;;;1.83;1.83;;;;;;;6.97;90.80;95259.97;4359618;32;20188;-58
2023/04/20 00:56:43;;;;;;;1.60;1.50;;;;;;;6.66;90.45;95244.28;4341201;32;20384;-58
2023/04/20 00:59:09;;;;;;;2.50;2.40;;;;;;;6.82;90.43;95242.38;4339383;32;20278;-58
2023/04/20 01:01:36;;;;;;;1.10;1.10;;;;;;;6.59;90.87;95246.44;4326777;32;20348;-58
2023/04/20 01:04:03;;;;;;;2.67;2.53;;;;;;;6.62;90.67;95243.28;4346028;32;20182;-57
2023/04/20 01:06:30;;;;;;;2.27;2.17;;;;;;;6.54;91.47;95234.06;4301264;33;20278;-58
2023/04/20 01:08:55;;;;;;;1.17;1.17;;;;;;;6.63;91.64;95220.34;4346598;32;20273;-58
2023/04/20 01:11:26;;;;;;;1.67;1.57;;;;;;;6.74;91.63;95220.00;4354415;32;20296;-59
2023/04/20 01:13:51;;;;;;;1.43;1.43;;;;;;;6.63;92.16;95218.50;4348883;32;20305;-58
2023/04/20 01:16:18;;;;;;;2.27;2.07;;;;;;;6.74;90.89;95220.00;4340459;32;20277;-57
2023/04/20 01:18:48;;;;;;;1.63;1.53;;;;;;;6.67;91.10;95208.19;4340190;32;20185;-58
2023/04/20 01:21:22;;;;;;;2.40;2.30;;;;;;;6.61;92.02;95206.63;4347475;32;20281;-57
2023/04/20 01:23:52;;;;;;;2.43;1.83;;;;;;;6.59;92.03;95204.28;4356271;32;20268;-58
2023/04/20 01:26:21;;;;;;;2.03;1.93;;;;;;;6.71;91.83;95196.81;4340350;32;20269;-57
2023/04/20 01:28:48;;;;;;;2.33;2.13;;;;;;;6.63;92.34;95202.69;4343527;32;20273;-57
2023/04/20 01:31:16;;;;;;;1.47;1.40;;;;;;;6.56;92.42;95196.91;4334545;32;20277;-57
2023/04/20 01:33:41;;;;;;;1.47;1.47;;;;;;;6.50;92.76;95200.63;4339968;32;20466;-57
2023/04/20 01:36:08;;;;;;;1.60;1.50;;;;;;;6.64;92.20;95204.25;4324258;32;20363;-57
2023/04/20 01:38:35;;;;;;;2.33;2.23;;;;;;;6.70;91.30;95203.16;4346537;32;20168;-57
2023/04/20 01:41:09;;;;;;;4.63;2.50;;;;;;;6.63;91.21;95204.53;4346537;32;20353;-58
2023/04/20 01:43:37;;;;;;;2.20;2.10;;;;;;;6.86;90.91;95201.22;4358641;32;20323;-58
2023/04/20 01:46:04;;;;;;;1.40;1.33;;;;;;;6.81;90.60;95207.34;4317394;33;20316;-58
2023/04/20 01:48:31;;;;;;;1.50;1.43;;;;;;;6.67;89.85;95205.53;4337417;32;20289;-57
2023/04/20 01:50:57;;;;;;;0.80;0.80;;;;;;;6.83;90.08;95205.22;4326464;32;20361;-58
2023/04/20 01:53:24;;;;;;;1.60;1.50;;;;;;;6.74;90.64;95198.91;4320751;32;20308;-57
2023/04/20 01:55:53;;;;;;;1.00;1.00;;;;;;;6.80;90.62;95194.41;4316076;32;20320;-57
2023/04/20 01:58:19;;;;;;;1.23;1.23;;;;;;;6.83;89.63;95185.97;4308470;33;20288;-57
2023/04/20 02:00:46;;;;;;;1.10;1.10;;;;;;;6.76;89.54;95183.63;4349174;32;20364;-58
2023/04/20 02:03:12;;;;;;;1.07;1.07;;;;;;;6.55;89.83;95190.06;4348266;32;20325;-57
2023/04/20 02:05:38;;;;;;;0.90;0.90;;;;;;;6.74;89.81;95183.09;4321902;32;20293;-60
2023/04/20 02:08:05;;;;;;;1.53;1.43;;;;;;;6.60;89.20;95186.63;4328912;32;20269;-57
2023/04/20 02:10:32;;;;;;;1.33;1.23;;;;;;;6.55;89.61;95179.50;4348723;32;20270;-57
2023/04/20 02:12:58;;;;;;;0.63;0.63;;;;;;;6.34;90.01;95183.28;4315940;32;20286;-61
2023/04/20 02:15:24;;;;;;;1.63;1.50;;;;;;;6.58;89.38;95173.72;4342369;32;20308;-57
2023/04/20 02:17:50;;;;;;;1.47;1.37;;;;;;;6.72;89.02;95173.88;4318498;32;20353;-57
2023/04/20 02:20:18;;;;;;;1.33;1.33;;;;;;;6.62;89.06;95168.69;4343648;32;20302;-57
2023/04/20 02:22:47;;;;;;;0.60;0.60;;;;;;;6.54;89.18;95168.19;4339468;32;20454;-58
2023/04/20 02:25:15;;;;;;;0.50;0.50;;;;;;;6.59;89.40;95174.50;4342516;32;20299;-57
2023/04/20 02:27:40;;;;;;;0.97;0.97;;;;;;;6.36;89.25;95170.66;4344992;32;20268;-57
2023/04/20 02:30:08;;;;;;;0.90;0.90;;;;;;;6.38;90.11;95168.53;4304894;33;20275;-57
2023/04/20 02:32:35;;;;;;;0.57;0.57;;;;;;;6.57;89.64;95164.22;4341168;32;20297;-58
2023/04/20 02:35:03;;;;;;;0.97;0.97;;;;;;;6.39;88.69;95175.38;4346494;32;20282;-57
2023/04/20 02:37:30;;;;;;;0.60;0.60;;;;;;;6.43;89.60;95173.78;4311709;32;20302;-58
2023/04/20 02:39:56;;;;;;;0.80;0.80;;;;;;;6.32;90.00;95173.03;4319739;32;20278;-58
2023/04/20 02:42:23;;;;;;;0.80;0.80;;;;;;;6.27;90.32;95165.12;4351742;32;20181;-57
2023/04/20 02:44:51;;;;;;;0.60;0.60;;;;;;;6.19;90.62;95166.50;4340667;32;20301;-58
2023/04/20 02:47:17;;;;;;;0.50;0.50;;;;;;;6.42;90.10;95170.38;4342335;32;20305;-57
2023/04/20 02:49:44;;;;;;;0.80;0.80;;;;;;;6.62;89.63;95155.50;4341697;32;20340;-58
2023/04/20 02:52:11;;;;;;;0.47;0.47;;;;;;;6.71;89.10;95156.50;4352537;32;20189;-58
2023/04/20 02:54:36;;;;;;;0.80;0.80;;;;;;;6.64;89.97;95154.19;4348156;32;20281;-57
2023/04/20 02:57:02;;;;;;;2.07;1.90;;;;;;;6.73;88.59;95149.09;4330528;32;20339;-57
2023/04/20 02:59:27;;;;;;;0.30;0.30;;;;;;;6.50;89.73;95140.00;4321604;32;20276;-58
2023/04/20 03:01:53;;;;;;;0.93;0.93;;;;;;;6.61;89.64;95141.53;4322992;32;20244;-57
2023/04/20 03:04:29;;;;;;;0.80;0.80;;;;;;;6.59;89.89;95138.41;4325879;32;20208;-56
2023/04/20 03:06:55;;;;;;;1.07;1.07;;;;;;;6.50;90.35;95132.09;4315136;32;20184;-59
2023/04/20 03:09:24;;;;;;;1.30;1.30;;;;;;;6.56;89.60;95128.38;4345827;32;20333;-58
2023/04/20 03:11:50;;;;;;;2.73;1.40;;;;;;;6.45;90.33;95132.13;4327907;32;20300;-58
2023/04/20 03:14:20;;;;;;;1.13;1.13;;;;;;;6.53;89.96;95129.72;4287100;32;20444;-59
2023/04/20 03:16:46;;;;;;;1.63;1.53;;;;;;;6.55;90.27;95132.88;4337122;32;20276;-57
2023/04/20 03:19:11;;;;;;;1.23;1.23;;;;;;;6.48;90.78;95136.84;4350152;32;20354;-58
2023/04/20 03:21:36;;;;;;;0.77;0.77;;;;;;;6.37;91.38;95130.87;4340838;32;20285;-58
2023/04/20 03:24:05;;;;;;;1.13;1.13;;;;;;;6.36;91.07;95131.13;4336731;32;20286;-58
2023/04/20 03:26:33;;;;;;;0.87;0.87;;;;;;;6.44;91.47;95126.06;4319916;32;20324;-57
2023/04/20 03:29:01;;;;;;;1.70;1.60;;;;;;;6.46;91.77;95125.78;4345939;32;20334;-58
2023/04/20 03:31:27;;;;;;;0.77;0.77;;;;;;;6.52;91.30;95122.09;4344579;32;20298;-61
2023/04/20 03:33:54;;;;;;;1.43;1.43;;;;;;;6.43;91.14;95124.53;4334529;32;20319;-57
2023/04/20 03:36:22;;;;;;;1.07;1.07;;;;;;;6.67;90.61;95118.56;4354753;32;20320;-57
2023/04/20 03:38:48;;;;;;;1.30;1.30;;;;;;;6.51;91.30;95117.88;4343554;32;20393;-57
2023/04/20 03:41:16;;;;;;;1.13;1.13;;;;;;;6.34;91.95;95114.81;4345537;32;20363;-57
2023/04/20 03:43:43;;;;;;;1.23;1.23;;;;;;;6.45;91.98;95113.69;4314855;32;20345;-57
2023/04/20 03:46:08;;;;;;;1.60;1.50;;;;;;;6.44;92.02;95109.50;4314726;32;20274;-57
2023/04/20 03:48:34;;;;;;;2.43;2.30;;;;;;;6.38;91.53;95110.56;4321725;32;20301;-58
2023/04/20 03:51:01;;;;;;;1.00;1.00;;;;;;;6.32;92.19;95112.44;4331862;32;20225;-58
2023/04/20 03:53:28;;;;;;;1.63;1.53;;;;;;;6.19;92.51;95107.78;4330507;32;20277;-57
2023/04/20 03:55:53;;;;;;;1.70;1.67;;;;;;;6.19;92.34;95107.78;4354647;32;20282;-58
2023/04/20 03:58:19;;;;;;;1.40;1.30;;;;;;;6.12;92.32;95102.00;4322140;32;20357;-57
2023/04/20 04:00:46;;;;;;;1.00;1.00;;;;;;;5.99;93.08;95110.50;4341152;32;20256;-57
2023/04/20 04:03:15;;;;;;;1.87;1.77;;;;;;;6.17;92.03;95102.78;4294355;32;20398;-58
2023/04/20 04:05:42;;;;;;;1.17;1.17;;;;;;;6.15;92.45;95106.72;4336562;32;20278;-58
2023/04/20 04:08:12;;;;;;;1.50;1.40;;;;;;;6.05;93.01;95106.75;4329315;32;20277;-57
2023/04/20 04:10:38;;;;;;;1.07;1.07;;;;;;;6.16;92.32;95098.56;4329960;32;20285;-57
2023/04/20 04:13:05;;;;;;;1.30;1.27;;;;;;;6.03;92.53;95101.75;4353201;32;20285;-57
2023/04/20 04:15:31;;;;;;;1.30;1.30;;;;;;;6.05;92.43;95097.03;4344260;32;20331;-57
2023/04/20 04:17:59;;;;;;;0.87;0.87;;;;;;;6.25;92.24;95090.09;4326486;32;20365;-60
2023/04/20 04:20:25;;;;;;;1.33;1.30;;;;;;;6.09;91.70;95103.31;4344644;32;20383;-58
2023/04/20 04:22:51;;;;;;;0.90;0.90;;;;;;;6.14;91.66;95095.41;4353548;32;20348;-57
2023/04/20 04:25:22;;;;;;;0.60;0.60;;;;;;;6.04;92.44;95095.44;4319855;32;20309;-57
2023/04/20 04:28:10;;;;;;;0.97;0.97;;;;;;;6.17;92.01;95092.25;4330035;32;20351;-57
2023/04/20 04:30:36;;;;;;;1.10;1.10;;;;;;;6.05;91.91;95089.12;4334548;32;20335;-57
2023/04/20 04:33:11;;;;;;;0.77;0.77;;;;;;;5.94;92.96;95095.50;4333310;32;20283;-57
2023/04/20 04:35:40;;;;;;;1.50;1.40;;;;;;;6.04;93.13;95099.91;4337783;32;20289;-57
2023/04/20 04:38:07;;;;;;;2.07;1.90;;;;;;;6.07;92.22;95091.50;4337739;32;20278;-57
2023/04/20 04:40:34;;;;;;;0.70;0.70;;;;;;;6.08;92.75;95085.16;4318297;32;20347;-58
2023/04/20 04:43:03;;;;;;;1.70;1.70;;;;;;;5.95;93.17;95093.66;4332394;32;20373;-57
2023/04/20 04:45:32;;;;;;;0.67;0.67;;;;;;;6.15;93.07;95090.94;4348891;32;20319;-58
2023/04/20 04:48:04;;;;;;;1.60;1.57;;;;;;;6.01;92.91;95097.84;4318132;32;20282;-58
2023/04/20 04:50:33;;;;;;;0.90;0.90;;;;;;;5.96;93.43;95089.97;4340102;32;20368;-57
2023/04/20 04:53:04;;;;;;;1.10;1.10;;;;;;;6.09;92.50;95081.47;4326128;32;20336;-57
2023/04/20 04:55:31;;;;;;;1.43;1.33;;;;;;;5.81;92.95;95086.31;4351467;32;20281;-57
2023/04/20 04:57:58;;;;;;;1.50;0.90;;;;;;;5.97;92.71;95094.97;4319052;32;20335;-56
2023/04/20 05:00:25;;;;;;;0.77;0.77;;;;;;;5.98;92.98;95091.28;4324889;32;20278;-57
2023/04/20 05:02:54;;;;;;;1.27;1.27;;;;;;;5.94;93.29;95092.06;4338832;32;20278;-57
2023/04/20 05:05:21;;;;;;;0.80;0.80;;;;;;;5.90;93.47;95094.47;4310844;32;20286;-57
2023/04/20 05:07:47;;;;;;;1.10;1.00;;;;;;;6.02;93.12;95083.63;4350441;32;20379;-57
2023/04/20 05:10:14;;;;;;;0.73;0.73;;;;;;;6.06;92.76;95077.53;4333085;32;20431;-58
2023/04/20 05:12:41;;;;;;;1.47;1.43;;;;;;;5.97;92.50;95083.66;4319480;32;20305;-57
2023/04/20 05:15:08;;;;;;;1.67;1.67;;;;;;;5.94;92.58;95094.72;4357928;32;20282;-57
2023/04/20 05:17:34;;;;;;;1.57;1.47;;;;;;;5.95;93.27;95093.66;4345361;32;20331;-57
2023/04/20 05:20:05;;;;;;;1.17;1.07;;;;;;;5.90;93.44;95094.47;4348787;32;20296;-58
2023/04/20 05:22:30;;;;;;;1.37;1.37;;;;;;;5.90;93.81;95091.81;4333903;32;20357;-57
2023/04/20 05:24:56;;;;;;;0.83;0.83;;;;;;;5.96;94.06;95093.37;4312782;32;20297;-57
2023/04/20 05:27:22;;;;;;;0.77;0.77;;;;;;;6.06;93.28;95092.53;4339634;32;20207;-58
2023/04/20 05:29:48;;;;;;;1.27;1.27;;;;;;;6.10;93.22;95090.94;4335566;32;20432;-57
2023/04/20 05:32:15;;;;;;;0.67;0.67;;;;;;;6.14;92.91;95092.78;4347436;32;20268;-57
2023/04/20 05:34:40;;;;;;;0.70;0.70;;;;;;;6.10;93.23;95098.84;4321124;33;20282;-56
2023/04/20 05:37:12;;;;;;;4.33;1.40;;;;;;;5.97;93.46;95097.59;4332003;32;20269;-57
2023/04/20 05:39:39;;;;;;;1.17;1.17;;;;;;;6.14;93.20;95090.16;4311049;33;20364;-57
2023/04/20 05:42:08;;;;;;;1.00;1.00;;;;;;;6.08;93.08;95083.31;4350268;32;20356;-57
2023/04/20 05:44:35;;;;;;;1.17;1.17;;;;;;;6.08;92.41;95080.69;4327883;32;20445;-57
2023/04/20 05:47:05;;;;;;;0.30;0.30;;;;;;;6.05;91.93;95075.97;4327693;33;20293;-57
2023/04/20 05:49:32;;;;;;;1.67;1.57;;;;;;;6.04;92.76;95078.84;4338951;32;20335;-57
2023/04/20 05:51:58;;;;;;;1.07;1.03;;;;;;;6.20;92.25;95086.44;4315202;32;20320;-58
2023/04/20 05:54:30;;;;;;;0.97;0.97;;;;;;;6.09;92.23;95087.53;4342777;32;20307;-57
2023/04/20 05:56:57;;;;;;;1.43;1.33;;;;;;;6.04;93.21;95086.75;4342381;32;20367;-58
2023/04/20 05:59:27;;;;;;;1.30;1.30;;;;;;;5.98;93.06;95086.00;4327944;32;20296;-57
2023/04/20 06:01:55;;;;;;;1.30;1.20;;;;;;;6.11;93.84;95090.69;4332871;32;20304;-57
2023/04/20 06:04:22;;;;;;;1.00;1.00;;;;;;;6.24;92.76;95083.25;4341189;32;20281;-58
2023/04/20 06:06:47;;;;;;;1.10;1.10;;;;;;;6.25;92.81;95090.09;4328039;32;20328;-58
2023/04/20 06:09:13;;;;;;;0.87;0.87;;;;;;;6.23;92.94;95086.97;4315785;32;20395;-57
2023/04/20 06:11:40;;;;;;;0.80;0.80;;;;;;;6.07;92.28;95073.84;4331548;32;20240;-58
2023/04/20 06:14:07;;;;;;;0.80;0.80;;;;;;;6.10;92.61;95078.56;4353305;32;20290;-57
2023/04/20 06:16:34;;;;;;;1.33;1.07;;;;;;;6.25;92.68;95082.97;4344949;32;20317;-57
2023/04/20 06:19:01;;;;;;;1.13;1.13;;;;;;;6.24;92.66;95075.34;4328943;32;20304;-60
2023/04/20 06:21:26;;;;;;;1.30;1.30;;;;;;;6.37;92.38;95069.50;4360408;32;20293;-60
2023/04/20 06:23:53;;;;;;;1.03;1.03;;;;;;;6.06;91.87;95067.00;4313479;32;20328;-58
2023/04/20 06:27:16;;;;;;;1.10;0.67;;;;;;;6.11;92.27;95066.97;4249785;33;20249;-60
2023/04/20 06:29:42;;;;;;;0.73;0.73;;;;;;;10.00;100.00;95051.06;4283408;33;20374;-60
2023/04/20 06:32:08;;;;;;;1.93;1.33;;;;;;;11.09;97.80;95057.16;4295338;33;20296;-60
2023/04/20 06:34:35;;;;;;;2.33;1.00;;;;;;;11.82;84.47;95058.53;4301873;33;20281;-60
2023/04/20 06:37:07;;;;;;;0.97;0.97;;;;;;;12.13;75.16;95059.25;4274221;32;20279;-60
2023/04/20 06:39:34;;;;;;;12.57;1.13;;;;;;;12.76;73.12;95052.59;4337927;32;20228;-60
2023/04/20 06:42:01;;;;;;;0.60;0.60;;;;;;;12.90;78.20;95047.88;4315903;32;20170;-60
2023/04/20 06:44:27;;;;;;;0.70;0.70;;;;;;;13.01;71.22;95041.16;4342946;32;20181;-61
2023/04/20 06:46:55;;;;;;;0.60;0.60;;;;;;;13.28;66.97;95037.41;4322949;32;20190;-60
2023/04/20 06:49:23;;;;;;;0.93;0.93;;;;;;;13.44;65.85;95037.66;4342680;32;20193;-60
2023/04/20 06:51:50;;;;;;;0.97;0.97;;;;;;;13.07;63.78;95039.91;4317863;32;20182;-60
2023/04/20 06:54:18;;;;;;;1.23;0.83;;;;;;;13.39;64.99;95041.28;4347147;32;20299;-59
2023/04/20 06:56:43;;;;;;;0.97;0.90;;;;;;;12.97;63.40;95045.53;4311421;32;20233;-60
2023/04/20 06:59:10;;;;;;;2.93;1.67;;;;;;;13.15;63.96;95034.88;4294498;32;20220;-60
2023/04/20 07:01:37;;;;;;;0.87;0.87;;;;;;;13.53;78.59;95035.75;4304900;32;20220;-57
2023/04/20 07:04:03;;;;;;;0.93;0.93;;;;;;;11.58;67.07;95045.56;4303240;32;20200;-57
2023/04/20 07:06:30;;;;;;;3.13;1.90;;;;;;;10.02;72.65;95040.16;4320633;32;20256;-58
2023/04/20 07:08:58;;;;;;;0.93;0.93;;;;;;;9.44;74.41;95046.81;4324962;32;20189;-58
2023/04/20 07:11:24;;;;;;;3.23;1.20;;;;;;;8.71;77.58;95044.88;4336104;32;20247;-59
2023/04/20 07:13:51;;;;;;;0.50;0.50;;;;;;;7.81;82.17;95052.94;4297595;32;20185;-59
2023/04/20 07:16:16;;;;;;;0.50;0.50;;;;;;;7.68;84.64;95045.69;4331626;32;20193;-58
2023/04/20 07:18:46;;;;;;;0.67;0.67;;;;;;;7.12;86.16;95044.41;4332530;32;20243;-58
2023/04/20 07:21:11;;;;;;;0.80;0.80;;;;;;;7.14;86.30;95046.75;4305895;32;20181;-59
2023/04/20 07:23:40;;;;;;;0.83;0.83;;;;;;;7.12;87.11;95040.97;4340276;32;20327;-59
2023/04/20 07:26:06;;;;;;;0.30;0.30;;;;;;;7.20;87.72;95045.66;4342843;32;20293;-57
2023/04/20 07:28:36;;;;;;;1.27;1.27;;;;;;;6.97;87.89;95049.81;4306120;32;20302;-59
2023/04/20 07:31:04;;;;;;;0.97;0.97;;;;;;;6.93;88.56;95053.28;4331465;32;20185;-59
2023/04/20 07:33:31;;;;;;;1.20;1.20;;;;;;;6.81;89.33;95051.78;4352276;32;20281;-55
2023/04/20 07:36:00;;;;;;;2.17;2.07;;;;;;;6.97;89.58;95062.22;4333709;32;20266;-58
2023/04/20 07:38:27;;;;;;;0.73;0.73;;;;;;;7.07;89.04;95062.87;4306296;32;20267;-62
2023/04/20 07:40:58;;;;;;;0.87;0.87;;;;;;;8.28;95.37;95063.44;4307445;32;20296;-61
2023/04/20 07:43:27;;;;;;;0.90;0.90;;;;;;;10.50;94.94;95069.66;4297425;33;20284;-61
2023/04/20 07:45:57;;;;;;;1.83;1.73;;;;;;;9.67;76.70;95070.78;4329965;32;20221;-60
2023/04/20 07:48:24;;;;;;;0.87;0.87;;;;;;;9.56;78.47;95070.19;4278613;32;20198;-60
2023/04/20 07:50:52;;;;;;;0.90;0.90;;;;;;;7.55;88.00;95086.72;4315970;32;20185;-60
2023/04/20 07:53:19;;;;;;;1.43;1.33;;;;;;;8.85;80.01;95079.31;4328183;32;20184;-60
2023/04/20 07:55:48;;;;;;;1.80;1.70;;;;;;;8.57;84.78;95075.75;4331316;32;20244;-58
2023/04/20 07:58:16;;;;;;;1.80;1.70;;;;;;;9.05;78.49;95067.63;4278063;33;20249;-58
2023/04/20 08:00:50;;;;;;;1.93;1.83;;;;;;;8.42;79.06;95079.38;4283384;32;20194;-58
2023/04/20 08:03:16;;;;;;;1.40;1.40;;;;;;;7.80;82.05;95081.19;4313600;32;20291;-57
2023/04/20 08:05:43;;;;;;;0.97;0.97;;;;;;;7.53;83.49;95079.09;4303647;32;20316;-58
2023/04/20 08:08:10;;;;;;;2.27;1.53;;;;;;;7.19;85.60;95073.88;4318454;32;20298;-58
2023/04/20 08:10:36;;;;;;;1.73;1.73;;;;;;;6.96;86.26;95073.81;4333472;32;20282;-55
2023/04/20 08:13:02;;;;;;;1.63;1.63;;;;;;;7.12;86.59;95073.41;4327967;32;20296;-57
2023/04/20 08:15:30;;;;;;;1.40;1.30;;;;;;;7.09;86.48;95067.88;4336726;32;20189;-55
2023/04/20 08:17:56;;;;;;;2.13;2.03;;;;;;;7.02;86.93;95054.25;4323220;32;20278;-57
2023/04/20 08:20:22;;;;;;;1.50;1.50;;;;;;;6.93;88.16;95054.06;4300115;32;20314;-58
2023/04/20 08:22:49;;;;;;;1.23;1.23;;;;;;;7.03;87.41;95053.97;4304398;33;20182;-58
2023/04/20 08:25:20;;;;;;;1.97;1.87;;;;;;;7.18;86.26;95053.06;4323225;32;20438;-57
2023/04/20 08:27:46;;;;;;;0.93;0.93;;;;;;;6.94;86.96;95057.47;4286304;32;20368;-57
2023/04/20 08:30:13;;;;;;;1.37;1.37;;;;;;;6.79;87.01;95053.91;4320483;32;20300;-58
2023/04/20 08:32:39;;;;;;;0.80;0.80;;;;;;;6.74;88.46;95059.22;4311992;32;20265;-57
2023/04/20 08:35:06;;;;;;;2.03;1.93;;;;;;;6.86;87.85;95054.37;4340617;32;20286;-57
2023/04/20 08:37:34;;;;;;;1.30;1.30;;;;;;;6.72;88.26;95061.34;4350433;32;20308;-58
2023/04/20 08:40:02;;;;;;;1.87;1.70;;;;;;;6.66;87.94;95054.53;4330029;32;20278;-58
2023/04/20 08:42:28;;;;;;;1.07;1.07;;;;;;;6.66;88.60;95048.47;4318890;32;20284;-58
2023/04/20 08:44:56;;;;;;;1.23;1.17;;;;;;;6.66;88.53;95059.00;4349475;32;20281;-58
2023/04/20 08:47:24;;;;;;;0.73;0.73;;;;;;;6.70;87.64;95054.75;4343468;32;20186;-59
2023/04/20 08:49:53;;;;;;;1.40;1.33;;;;;;;6.46;88.11;95057.28;4317366;32;20297;-57
2023/04/20 08:52:20;;;;;;;2.33;1.63;;;;;;;6.45;88.36;95053.09;4300218;32;20341;-59
2023/04/20 08:54:46;;;;;;;1.53;1.50;;;;;;;6.58;88.50;95044.59;4327707;32;20369;-59
2023/04/20 08:57:12;;;;;;;1.23;1.23;;;;;;;6.69;87.76;95048.69;4322648;32;20190;-59
2023/04/20 08:59:39;;;;;;;3.13;2.93;;;;;;;6.78;87.22;95052.34;4344706;32;20197;-57
2023/04/20 09:02:14;;;;;;;1.57;1.47;;;;;;;6.88;87.62;95062.78;4345663;32;20322;-58
2023/04/20 09:04:41;;;;;;;0.80;0.80;;;;;;;6.69;87.40;95059.25;4283597;33;20282;-57
2023/04/20 09:07:22;;;;;;;1.00;0.87;;;;;;;6.70;88.14;95065.31;4295002;32;20361;-54
2023/04/20 09:09:59;;;;;;;1.63;1.63;;;;;;;6.86;87.40;95058.84;4348558;32;20291;-58
2023/04/20 09:12:27;;;;;;;1.27;1.27;;;;;;;6.77;87.56;95065.78;4327228;33;20258;-58
2023/04/20 09:14:55;;;;;;;1.40;1.40;;;;;;;7.03;87.08;95058.47;4335441;32;20265;-58
2023/04/20 09:17:34;;;;;;;1.57;1.50;;;;;;;7.15;86.51;95062.31;4308375;32;20332;-57
2023/04/20 09:20:03;;;;;;;1.60;1.60;;;;;;;7.38;86.17;95070.53;4313612;32;20274;-58
2023/04/20 09:22:35;;;;;;;0.87;0.87;;;;;;;7.40;85.71;95073.69;4320760;32;20329;-59
2023/04/20 09:25:18;;;;;;;0.77;0.77;;;;;;;7.15;86.41;95062.31;4321505;32;20286;-59
2023/04/20 09:28:01;;;;;;;0.87;0.87;;;;;;;7.10;86.53;95072.09;4284324;33;20317;-58
2023/04/20 09:30:50;;;;;;;1.20;1.20;;;;;;;7.22;86.19;95069.91;4313153;32;20298;-57
2023/04/20 09:33:18;;;;;;;1.53;1.43;;;;;;;7.37;85.50;95075.03;4351956;32;20378;-56
2023/04/20 09:35:46;;;;;;;1.50;1.40;;;;;;;7.64;84.95;95060.50;4350305;32;20277;-54
2023/04/20 09:38:15;;;;;;;1.07;1.07;;;;;;;7.80;83.94;95054.78;4338320;32;20286;-53
2023/04/20 09:40:42;;;;;;;1.37;1.27;;;;;;;7.48;84.80;95060.66;4319401;32;20321;-57
2023/04/20 09:43:30;;;;;;;2.07;1.43;;;;;;;7.45;85.52;95055.97;4319822;32;20277;-57
2023/04/20 09:45:56;;;;;;;2.00;1.70;;;;;;;7.46;85.18;95062.81;4330475;32;20285;-58
2023/04/20 09:48:35;;;;;;;1.77;1.67;;;;;;;7.45;84.87;95061.25;4300334;32;20289;-58
2023/04/20 09:51:02;;;;;;;1.17;1.17;;;;;;;7.49;85.18;95048.25;4353740;32;20281;-56
2023/04/20 09:53:30;;;;;;;2.03;1.93;;;;;;;7.36;85.78;95048.91;4342166;32;20296;-59
2023/04/20 09:56:00;;;;;;;1.77;1.00;;;;;;;7.29;86.66;95040.53;4309477;32;20281;-58
2023/04/20 09:58:35;;;;;;;1.77;1.67;;;;;;;7.33;86.53;95033.66;4341229;32;20277;-57
2023/04/20 10:01:02;;;;;;;2.47;1.90;;;;;;;7.33;86.30;95041.56;4323130;32;20281;-56
2023/04/20 10:03:31;;;;;;;1.20;1.20;;;;;;;7.36;85.60;95038.38;4325844;32;20300;-58
2023/04/20 10:05:59;;;;;;;2.23;2.13;;;;;;;7.16;85.77;95045.41;4343337;32;20286;-58
2023/04/20 10:08:41;;;;;;;1.13;1.13;;;;;;;7.14;85.98;95049.41;4346959;32;20320;-58
2023/04/20 10:11:07;;;;;;;1.30;1.30;;;;;;;7.00;86.46;95048.47;4334477;32;20301;-61
2023/04/20 10:13:32;;;;;;;1.27;1.27;;;;;;;7.21;86.43;95029.56;4341111;32;20285;-59
2023/04/20 10:15:59;;;;;;;1.60;1.50;;;;;;;7.33;86.89;95034.44;4350545;32;20203;-57
2023/04/20 10:18:37;;;;;;;0.83;0.83;;;;;;;7.20;86.42;95035.09;4316827;32;20256;-58
2023/04/20 10:21:10;;;;;;;1.10;1.10;;;;;;;7.19;86.24;95036.16;4354044;32;20352;-58
2023/04/20 10:23:50;;;;;;;1.50;1.37;;;;;;;7.02;86.30;95036.59;4347677;32;20379;-57
2023/04/20 10:26:18;;;;;;;2.00;1.90;;;;;;;7.13;86.81;95038.06;4341441;32;20522;-58
2023/04/20 10:28:53;;;;;;;2.23;1.63;;;;;;;7.16;86.97;95032.22;4334709;32;20332;-59
2023/04/20 10:31:34;;;;;;;1.10;0.97;;;;;;;7.26;87.14;95036.63;4332823;32;20297;-59
2023/04/20 10:34:03;;;;;;;1.70;1.60;;;;;;;7.29;86.64;95028.12;4341251;32;20335;-59
2023/04/20 10:36:35;;;;;;;2.00;1.90;;;;;;;7.24;86.77;95022.94;4346933;32;20282;-61
2023/04/20 10:39:26;;;;;;;3.07;2.87;;;;;;;7.06;86.96;95026.28;4355470;32;20290;-60
2023/04/20 10:42:00;;;;;;;6.23;2.07;;;;;;;7.34;87.20;95025.44;4324793;32;20316;-59
2023/04/20 10:44:27;;;;;;;0.80;0.80;;;;;;;7.42;85.82;95019.56;4352473;32;20270;-58
2023/04/20 10:47:05;;;;;;;1.80;1.73;;;;;;;7.41;85.37;95018.00;4322349;32;20360;-59
2023/04/20 10:49:33;;;;;;;1.57;1.57;;;;;;;7.41;86.06;95017.22;4339338;32;20308;-59
2023/04/20 10:52:01;;;;;;;1.93;1.83;;;;;;;7.32;86.53;95016.25;4344262;32;20291;-59
2023/04/20 10:54:35;;;;;;;1.53;1.53;;;;;;;7.22;86.65;95017.16;4342624;32;20281;-59
2023/04/20 10:57:02;;;;;;;1.73;1.70;;;;;;;7.42;86.54;95014.28;4313182;32;20292;-59
2023/04/20 10:59:28;;;;;;;1.83;1.73;;;;;;;7.63;86.30;95020.12;4318332;32;20279;-59
2023/04/20 11:01:55;;;;;;;1.17;1.17;;;;;;;7.77;86.26;95009.66;4314490;32;20278;-59
2023/04/20 11:04:32;;;;;;;1.13;1.13;;;;;;;7.74;85.94;95004.94;4346186;32;20282;-59
2023/04/20 11:07:09;;;;;;;1.70;1.60;;;;;;;7.89;85.44;94997.62;4334331;32;20334;-59
2023/04/20 11:09:37;;;;;;;1.57;1.57;;;;;;;7.93;85.00;95000.47;4341937;32;20333;-58
2023/04/20 11:12:14;;;;;;;1.23;1.23;;;;;;;7.80;85.09;94990.62;4348286;32;20290;-59
2023/04/20 11:15:03;;;;;;;1.67;1.57;;;;;;;7.80;85.41;94986.13;4334391;32;20332;-59
2023/04/20 11:17:37;;;;;;;1.17;1.17;;;;;;;7.93;85.43;94988.06;4273523;32;20290;-52
2023/04/20 11:20:09;;;;;;;1.77;1.77;;;;;;;9.69;98.09;94986.53;4313715;32;20281;-49
2023/04/20 11:22:38;;;;;;;1.20;1.13;;;;;;;9.61;84.06;94978.19;4336298;32;20259;-51
2023/04/20 11:25:06;;;;;;;1.47;1.40;;;;;;;9.86;87.18;94973.44;4347261;32;20208;-59
2023/04/20 11:27:43;;;;;;;1.67;1.57;;;;;;;9.13;78.85;94977.78;4303645;32;20259;-58
2023/04/20 11:30:10;;;;;;;1.43;1.43;;;;;;;8.78;80.82;94976.53;4349918;32;20188;-58
2023/04/20 11:32:36;;;;;;;1.70;1.70;;;;;;;8.32;82.17;94973.00;4334577;32;20185;-56
2023/04/20 11:35:09;;;;;;;1.40;1.40;;;;;;;8.15;83.30;94971.66;4340736;32;20204;-57
2023/04/20 11:38:04;;;;;;;0.73;0.73;;;;;;;7.93;84.69;94977.50;4325086;32;20323;-58
2023/04/20 11:40:31;;;;;;;1.23;1.23;;;;;;;7.75;85.14;94974.84;4297609;32;20194;-57
2023/04/20 11:43:01;;;;;;;0.93;0.93;;;;;;;7.50;86.32;94968.00;4326400;32;20351;-58
2023/04/20 11:45:32;;;;;;;1.53;1.43;;;;;;;7.71;86.66;94969.34;4321273;32;20278;-57
2023/04/20 11:47:59;;;;;;;1.40;1.30;;;;;;;7.80;85.61;94966.84;4340743;32;20289;-56